sensor_id;sensor_type;location;lat;lon;timestamp;P1;durP1;ratioP1;P2;durP2;ratioP2
22205;SDS011;11272;50.104;8.754;2022-10-13T00:01:46;29.70;;;14.33;;
22205;SDS011;11272;50.104;8.754;2022-10-13T00:04:11;27.87;;;15.03;;
22205;SDS011;11272;50.104;8.754;2022-10-13T00:06:37;29.80;;;14.90;;
22205;SDS011;11272;50.104;8.754;2022-10-13T00:09:02;26.77;;;14.73;;
22205;SDS011;11272;50.104;8.754;2022-10-13T00:11:28;31.60;;;14.47;;
22205;SDS011;11272;50.104;8.754;2022-10-13T00:13:55;33.63;;;14.53;;
22205;SDS011;11272;50.104;8.754;2022-10-13T00:16:22;30.40;;;14.63;;
22205;SDS011;11272;50.104;8.754;2022-10-13T00:18:48;29.53;;;14.07;;
22205;SDS011;11272;50.104;8.754;2022-10-13T00:21:16;31.27;;;15.07;;
22205;SDS011;11272;50.104;8.754;2022-10-13T00:23:44;24.63;;;13.33;;
22205;SDS011;11272;50.104;8.754;2022-10-13T00:26:11;22.23;;;13.10;;
22205;SDS011;11272;50.104;8.754;2022-10-13T00:28:38;23.73;;;12.97;;
22205;SDS011;11272;50.104;8.754;2022-10-13T00:31:14;24.70;;;12.90;;
22205;SDS011;11272;50.104;8.754;2022-10-13T00:33:41;24.90;;;12.77;;
22205;SDS011;11272;50.104;8.754;2022-10-13T00:36:06;21.83;;;11.57;;
22205;SDS011;11272;50.104;8.754;2022-10-13T00:38:32;21.80;;;12.63;;
22205;SDS011;11272;50.104;8.754;2022-10-13T00:40:57;27.70;;;12.77;;
22205;SDS011;11272;50.104;8.754;2022-10-13T00:43:29;26.03;;;12.57;;
22205;SDS011;11272;50.104;8.754;2022-10-13T00:46:14;22.23;;;12.47;;
22205;SDS011;11272;50.104;8.754;2022-10-13T00:48:40;19.90;;;12.37;;
22205;SDS011;11272;50.104;8.754;2022-10-13T00:51:07;29.33;;;13.23;;
22205;SDS011;11272;50.104;8.754;2022-10-13T00:53:35;24.13;;;13.03;;
22205;SDS011;11272;50.104;8.754;2022-10-13T00:56:03;24.03;;;12.70;;
22205;SDS011;11272;50.104;8.754;2022-10-13T00:58:31;23.23;;;12.87;;
22205;SDS011;11272;50.104;8.754;2022-10-13T01:00:58;24.97;;;12.57;;
22205;SDS011;11272;50.104;8.754;2022-10-13T01:06:05;23.37;;;13.37;;
22205;SDS011;11272;50.104;8.754;2022-10-13T01:08:32;19.97;;;12.27;;
22205;SDS011;11272;50.104;8.754;2022-10-13T01:16:45;19.73;;;12.27;;
22205;SDS011;11272;50.104;8.754;2022-10-13T01:30:30;23.33;;;12.43;;
22205;SDS011;11272;50.104;8.754;2022-10-13T01:33:13;26.13;;;13.73;;
22205;SDS011;11272;50.104;8.754;2022-10-13T01:36:50;22.30;;;12.63;;
22205;SDS011;11272;50.104;8.754;2022-10-13T01:38:59;25.10;;;12.33;;
22205;SDS011;11272;50.104;8.754;2022-10-13T01:41:31;29.23;;;13.47;;
22205;SDS011;11272;50.104;8.754;2022-10-13T01:46:53;24.27;;;13.13;;
22205;SDS011;11272;50.104;8.754;2022-10-13T01:49:21;22.17;;;12.47;;
22205;SDS011;11272;50.104;8.754;2022-10-13T01:51:50;24.43;;;12.07;;
22205;SDS011;11272;50.104;8.754;2022-10-13T01:54:18;34.37;;;12.80;;
22205;SDS011;11272;50.104;8.754;2022-10-13T01:59:26;22.57;;;12.57;;
22205;SDS011;11272;50.104;8.754;2022-10-13T02:10:04;30.53;;;13.50;;
22205;SDS011;11272;50.104;8.754;2022-10-13T02:12:48;27.93;;;13.77;;
22205;SDS011;11272;50.104;8.754;2022-10-13T02:15:19;20.53;;;12.67;;
22205;SDS011;11272;50.104;8.754;2022-10-13T02:17:49;23.10;;;13.10;;
22205;SDS011;11272;50.104;8.754;2022-10-13T02:20:16;25.17;;;12.07;;
22205;SDS011;11272;50.104;8.754;2022-10-13T02:22:44;26.90;;;11.60;;
22205;SDS011;11272;50.104;8.754;2022-10-13T02:25:12;24.80;;;11.83;;
22205;SDS011;11272;50.104;8.754;2022-10-13T02:27:38;21.87;;;11.27;;
22205;SDS011;11272;50.104;8.754;2022-10-13T02:30:04;22.63;;;12.60;;
22205;SDS011;11272;50.104;8.754;2022-10-13T02:32:30;24.13;;;12.27;;
22205;SDS011;11272;50.104;8.754;2022-10-13T02:34:56;21.43;;;12.17;;
22205;SDS011;11272;50.104;8.754;2022-10-13T02:37:21;24.80;;;12.17;;
22205;SDS011;11272;50.104;8.754;2022-10-13T02:39:49;21.60;;;12.13;;
22205;SDS011;11272;50.104;8.754;2022-10-13T02:42:15;25.97;;;12.23;;
22205;SDS011;11272;50.104;8.754;2022-10-13T02:44:40;22.97;;;12.50;;
22205;SDS011;11272;50.104;8.754;2022-10-13T02:47:06;23.50;;;12.77;;
22205;SDS011;11272;50.104;8.754;2022-10-13T02:49:31;21.63;;;11.63;;
22205;SDS011;11272;50.104;8.754;2022-10-13T02:51:56;20.63;;;11.93;;
22205;SDS011;11272;50.104;8.754;2022-10-13T02:54:22;26.63;;;13.27;;
22205;SDS011;11272;50.104;8.754;2022-10-13T02:56:47;25.03;;;12.77;;
22205;SDS011;11272;50.104;8.754;2022-10-13T02:59:13;20.80;;;12.73;;
22205;SDS011;11272;50.104;8.754;2022-10-13T03:01:38;23.27;;;12.23;;
22205;SDS011;11272;50.104;8.754;2022-10-13T03:04:06;21.50;;;11.80;;
22205;SDS011;11272;50.104;8.754;2022-10-13T03:06:33;29.00;;;12.50;;
22205;SDS011;11272;50.104;8.754;2022-10-13T03:08:59;24.20;;;11.93;;
22205;SDS011;11272;50.104;8.754;2022-10-13T03:11:24;23.33;;;12.30;;
22205;SDS011;11272;50.104;8.754;2022-10-13T03:13:50;25.37;;;12.63;;
22205;SDS011;11272;50.104;8.754;2022-10-13T03:16:15;29.57;;;12.50;;
22205;SDS011;11272;50.104;8.754;2022-10-13T03:18:40;26.57;;;11.93;;
22205;SDS011;11272;50.104;8.754;2022-10-13T03:21:06;21.73;;;12.10;;
22205;SDS011;11272;50.104;8.754;2022-10-13T03:23:34;27.53;;;12.37;;
22205;SDS011;11272;50.104;8.754;2022-10-13T03:25:59;27.73;;;11.73;;
22205;SDS011;11272;50.104;8.754;2022-10-13T03:28:25;23.17;;;11.87;;
22205;SDS011;11272;50.104;8.754;2022-10-13T03:30:58;32.67;;;13.00;;
22205;SDS011;11272;50.104;8.754;2022-10-13T03:33:27;29.90;;;12.67;;
22205;SDS011;11272;50.104;8.754;2022-10-13T03:35:58;29.40;;;12.90;;
22205;SDS011;11272;50.104;8.754;2022-10-13T03:38:26;33.77;;;13.63;;
22205;SDS011;11272;50.104;8.754;2022-10-13T03:40:52;27.63;;;12.90;;
22205;SDS011;11272;50.104;8.754;2022-10-13T03:43:18;33.13;;;14.50;;
22205;SDS011;11272;50.104;8.754;2022-10-13T03:45:43;31.17;;;14.03;;
22205;SDS011;11272;50.104;8.754;2022-10-13T03:48:09;25.73;;;13.37;;
22205;SDS011;11272;50.104;8.754;2022-10-13T03:50:34;27.57;;;12.53;;
22205;SDS011;11272;50.104;8.754;2022-10-13T03:53:02;26.83;;;14.00;;
22205;SDS011;11272;50.104;8.754;2022-10-13T03:55:28;32.37;;;14.17;;
22205;SDS011;11272;50.104;8.754;2022-10-13T03:57:53;33.43;;;14.97;;
22205;SDS011;11272;50.104;8.754;2022-10-13T04:00:19;31.27;;;14.93;;
22205;SDS011;11272;50.104;8.754;2022-10-13T04:02:47;38.47;;;14.77;;
22205;SDS011;11272;50.104;8.754;2022-10-13T04:07:54;35.93;;;15.47;;
22205;SDS011;11272;50.104;8.754;2022-10-13T04:10:26;37.80;;;15.77;;
22205;SDS011;11272;50.104;8.754;2022-10-13T04:12:51;45.77;;;15.83;;
22205;SDS011;11272;50.104;8.754;2022-10-13T04:15:16;43.07;;;16.37;;
22205;SDS011;11272;50.104;8.754;2022-10-13T04:17:42;43.10;;;17.17;;
22205;SDS011;11272;50.104;8.754;2022-10-13T04:20:07;48.63;;;17.13;;
22205;SDS011;11272;50.104;8.754;2022-10-13T04:22:33;51.23;;;16.83;;
22205;SDS011;11272;50.104;8.754;2022-10-13T04:24:58;47.77;;;17.27;;
22205;SDS011;11272;50.104;8.754;2022-10-13T04:27:25;46.17;;;17.87;;
22205;SDS011;11272;50.104;8.754;2022-10-13T04:29:51;48.07;;;17.10;;
22205;SDS011;11272;50.104;8.754;2022-10-13T04:32:17;41.20;;;18.03;;
22205;SDS011;11272;50.104;8.754;2022-10-13T04:34:42;45.20;;;17.77;;
22205;SDS011;11272;50.104;8.754;2022-10-13T04:37:08;47.33;;;17.87;;
22205;SDS011;11272;50.104;8.754;2022-10-13T04:39:33;51.27;;;17.40;;
22205;SDS011;11272;50.104;8.754;2022-10-13T04:41:59;45.50;;;16.93;;
22205;SDS011;11272;50.104;8.754;2022-10-13T04:44:24;52.57;;;17.13;;
22205;SDS011;11272;50.104;8.754;2022-10-13T04:46:49;61.33;;;19.10;;
22205;SDS011;11272;50.104;8.754;2022-10-13T04:49:15;57.27;;;17.93;;
22205;SDS011;11272;50.104;8.754;2022-10-13T04:51:41;58.17;;;18.50;;
22205;SDS011;11272;50.104;8.754;2022-10-13T04:54:06;61.90;;;18.73;;
22205;SDS011;11272;50.104;8.754;2022-10-13T04:56:32;44.93;;;16.80;;
22205;SDS011;11272;50.104;8.754;2022-10-13T04:59:00;58.60;;;18.90;;
22205;SDS011;11272;50.104;8.754;2022-10-13T05:01:26;66.63;;;19.57;;
22205;SDS011;11272;50.104;8.754;2022-10-13T05:03:56;73.17;;;19.53;;
22205;SDS011;11272;50.104;8.754;2022-10-13T05:06:26;62.80;;;18.93;;
22205;SDS011;11272;50.104;8.754;2022-10-13T05:08:54;55.97;;;19.20;;
22205;SDS011;11272;50.104;8.754;2022-10-13T05:11:21;50.47;;;18.17;;
22205;SDS011;11272;50.104;8.754;2022-10-13T05:13:48;56.03;;;17.13;;
22205;SDS011;11272;50.104;8.754;2022-10-13T05:16:14;51.17;;;19.23;;
22205;SDS011;11272;50.104;8.754;2022-10-13T05:18:40;53.70;;;19.20;;
22205;SDS011;11272;50.104;8.754;2022-10-13T05:21:13;54.20;;;19.17;;
22205;SDS011;11272;50.104;8.754;2022-10-13T05:23:40;45.60;;;18.10;;
22205;SDS011;11272;50.104;8.754;2022-10-13T05:26:08;47.00;;;17.93;;
22205;SDS011;11272;50.104;8.754;2022-10-13T05:28:35;52.37;;;18.20;;
22205;SDS011;11272;50.104;8.754;2022-10-13T05:33:39;47.80;;;17.93;;
22205;SDS011;11272;50.104;8.754;2022-10-13T05:36:14;45.10;;;17.97;;
22205;SDS011;11272;50.104;8.754;2022-10-13T05:38:42;48.00;;;17.73;;
22205;SDS011;11272;50.104;8.754;2022-10-13T05:41:08;43.03;;;17.97;;
22205;SDS011;11272;50.104;8.754;2022-10-13T05:43:39;48.43;;;18.27;;
22205;SDS011;11272;50.104;8.754;2022-10-13T05:46:06;53.33;;;18.33;;
22205;SDS011;11272;50.104;8.754;2022-10-13T05:48:34;46.73;;;18.00;;
22205;SDS011;11272;50.104;8.754;2022-10-13T05:51:02;44.60;;;17.97;;
22205;SDS011;11272;50.104;8.754;2022-10-13T05:53:35;45.27;;;18.37;;
22205;SDS011;11272;50.104;8.754;2022-10-13T05:56:09;39.60;;;18.00;;
22205;SDS011;11272;50.104;8.754;2022-10-13T05:58:39;41.07;;;18.17;;
22205;SDS011;11272;50.104;8.754;2022-10-13T06:01:11;54.20;;;18.87;;
22205;SDS011;11272;50.104;8.754;2022-10-13T06:03:39;47.63;;;17.10;;
22205;SDS011;11272;50.104;8.754;2022-10-13T06:06:06;46.80;;;18.37;;
22205;SDS011;11272;50.104;8.754;2022-10-13T06:08:32;48.63;;;18.43;;
22205;SDS011;11272;50.104;8.754;2022-10-13T06:10:58;46.47;;;18.60;;
22205;SDS011;11272;50.104;8.754;2022-10-13T06:13:23;50.97;;;18.27;;
22205;SDS011;11272;50.104;8.754;2022-10-13T06:15:49;46.00;;;17.57;;
22205;SDS011;11272;50.104;8.754;2022-10-13T06:18:14;53.47;;;18.17;;
22205;SDS011;11272;50.104;8.754;2022-10-13T06:20:58;46.53;;;18.57;;
22205;SDS011;11272;50.104;8.754;2022-10-13T06:23:29;47.03;;;17.90;;
22205;SDS011;11272;50.104;8.754;2022-10-13T06:25:55;37.23;;;17.43;;
22205;SDS011;11272;50.104;8.754;2022-10-13T06:28:20;47.27;;;17.60;;
22205;SDS011;11272;50.104;8.754;2022-10-13T06:30:46;39.67;;;18.73;;
22205;SDS011;11272;50.104;8.754;2022-10-13T06:33:19;38.73;;;17.83;;
22205;SDS011;11272;50.104;8.754;2022-10-13T06:35:46;42.63;;;18.53;;
22205;SDS011;11272;50.104;8.754;2022-10-13T06:38:12;51.40;;;18.50;;
22205;SDS011;11272;50.104;8.754;2022-10-13T06:40:39;37.97;;;17.87;;
22205;SDS011;11272;50.104;8.754;2022-10-13T06:43:05;46.67;;;19.83;;
22205;SDS011;11272;50.104;8.754;2022-10-13T06:45:39;39.60;;;17.33;;
22205;SDS011;11272;50.104;8.754;2022-10-13T06:48:04;46.33;;;19.20;;
22205;SDS011;11272;50.104;8.754;2022-10-13T06:50:30;41.33;;;17.83;;
22205;SDS011;11272;50.104;8.754;2022-10-13T06:52:56;41.43;;;18.67;;
22205;SDS011;11272;50.104;8.754;2022-10-13T06:55:25;38.20;;;18.13;;
22205;SDS011;11272;50.104;8.754;2022-10-13T06:57:52;37.50;;;16.37;;
22205;SDS011;11272;50.104;8.754;2022-10-13T07:00:17;35.47;;;16.83;;
22205;SDS011;11272;50.104;8.754;2022-10-13T07:02:47;35.00;;;16.60;;
22205;SDS011;11272;50.104;8.754;2022-10-13T07:05:14;33.43;;;17.87;;
22205;SDS011;11272;50.104;8.754;2022-10-13T07:07:40;84.73;;;35.97;;
22205;SDS011;11272;50.104;8.754;2022-10-13T07:10:05;31.67;;;16.57;;
22205;SDS011;11272;50.104;8.754;2022-10-13T07:12:31;31.90;;;16.03;;
22205;SDS011;11272;50.104;8.754;2022-10-13T07:14:56;30.47;;;15.93;;
22205;SDS011;11272;50.104;8.754;2022-10-13T07:17:22;35.47;;;17.07;;
22205;SDS011;11272;50.104;8.754;2022-10-13T07:19:47;33.20;;;18.00;;
22205;SDS011;11272;50.104;8.754;2022-10-13T07:22:13;36.10;;;17.23;;
22205;SDS011;11272;50.104;8.754;2022-10-13T07:24:39;33.27;;;17.60;;
22205;SDS011;11272;50.104;8.754;2022-10-13T07:27:04;34.80;;;16.67;;
22205;SDS011;11272;50.104;8.754;2022-10-13T07:29:30;34.67;;;17.00;;
22205;SDS011;11272;50.104;8.754;2022-10-13T07:31:55;37.03;;;16.90;;
22205;SDS011;11272;50.104;8.754;2022-10-13T07:34:21;33.60;;;15.83;;
22205;SDS011;11272;50.104;8.754;2022-10-13T07:36:47;32.50;;;15.67;;
22205;SDS011;11272;50.104;8.754;2022-10-13T07:39:12;28.70;;;15.80;;
22205;SDS011;11272;50.104;8.754;2022-10-13T07:41:39;39.07;;;17.03;;
22205;SDS011;11272;50.104;8.754;2022-10-13T07:44:05;33.97;;;16.03;;
22205;SDS011;11272;50.104;8.754;2022-10-13T07:46:30;30.63;;;15.93;;
22205;SDS011;11272;50.104;8.754;2022-10-13T07:48:56;38.63;;;15.80;;
22205;SDS011;11272;50.104;8.754;2022-10-13T07:51:21;32.30;;;16.63;;
22205;SDS011;11272;50.104;8.754;2022-10-13T07:53:47;34.37;;;16.27;;
22205;SDS011;11272;50.104;8.754;2022-10-13T07:56:13;32.00;;;15.40;;
22205;SDS011;11272;50.104;8.754;2022-10-13T07:58:41;32.13;;;16.67;;
22205;SDS011;11272;50.104;8.754;2022-10-13T08:01:08;31.77;;;16.10;;
22205;SDS011;11272;50.104;8.754;2022-10-13T08:03:36;33.50;;;15.87;;
22205;SDS011;11272;50.104;8.754;2022-10-13T08:06:03;31.27;;;17.07;;
22205;SDS011;11272;50.104;8.754;2022-10-13T08:08:30;31.87;;;16.43;;
22205;SDS011;11272;50.104;8.754;2022-10-13T08:10:59;32.20;;;16.93;;
22205;SDS011;11272;50.104;8.754;2022-10-13T08:13:30;35.13;;;16.47;;
22205;SDS011;11272;50.104;8.754;2022-10-13T08:15:58;34.73;;;17.37;;
22205;SDS011;11272;50.104;8.754;2022-10-13T08:18:24;30.00;;;16.33;;
22205;SDS011;11272;50.104;8.754;2022-10-13T08:20:49;28.87;;;15.77;;
22205;SDS011;11272;50.104;8.754;2022-10-13T08:23:16;39.90;;;16.27;;
22205;SDS011;11272;50.104;8.754;2022-10-13T08:25:48;28.23;;;14.90;;
22205;SDS011;11272;50.104;8.754;2022-10-13T08:28:25;35.93;;;16.90;;
22205;SDS011;11272;50.104;8.754;2022-10-13T08:30:52;34.73;;;16.53;;
22205;SDS011;11272;50.104;8.754;2022-10-13T08:33:19;29.40;;;15.23;;
22205;SDS011;11272;50.104;8.754;2022-10-13T08:35:45;31.33;;;15.63;;
22205;SDS011;11272;50.104;8.754;2022-10-13T08:38:10;30.80;;;15.93;;
22205;SDS011;11272;50.104;8.754;2022-10-13T08:40:37;29.70;;;15.67;;
22205;SDS011;11272;50.104;8.754;2022-10-13T08:43:06;34.10;;;16.03;;
22205;SDS011;11272;50.104;8.754;2022-10-13T08:45:34;31.60;;;16.30;;
22205;SDS011;11272;50.104;8.754;2022-10-13T08:48:04;32.93;;;15.80;;
22205;SDS011;11272;50.104;8.754;2022-10-13T08:50:35;32.20;;;16.10;;
22205;SDS011;11272;50.104;8.754;2022-10-13T08:53:08;31.03;;;16.03;;
22205;SDS011;11272;50.104;8.754;2022-10-13T08:55:43;31.77;;;16.87;;
22205;SDS011;11272;50.104;8.754;2022-10-13T08:58:20;30.67;;;14.67;;
22205;SDS011;11272;50.104;8.754;2022-10-13T09:00:50;31.57;;;15.63;;
22205;SDS011;11272;50.104;8.754;2022-10-13T09:03:31;31.03;;;16.53;;
22205;SDS011;11272;50.104;8.754;2022-10-13T09:06:26;34.30;;;16.50;;
22205;SDS011;11272;50.104;8.754;2022-10-13T09:09:00;30.27;;;16.50;;
22205;SDS011;11272;50.104;8.754;2022-10-13T09:11:35;34.07;;;16.33;;
22205;SDS011;11272;50.104;8.754;2022-10-13T09:14:06;34.60;;;16.53;;
22205;SDS011;11272;50.104;8.754;2022-10-13T09:16:34;35.60;;;16.27;;
22205;SDS011;11272;50.104;8.754;2022-10-13T09:19:11;33.13;;;17.13;;
22205;SDS011;11272;50.104;8.754;2022-10-13T09:21:51;36.40;;;17.87;;
22205;SDS011;11272;50.104;8.754;2022-10-13T09:24:22;34.50;;;16.83;;
22205;SDS011;11272;50.104;8.754;2022-10-13T09:26:50;31.23;;;16.73;;
22205;SDS011;11272;50.104;8.754;2022-10-13T09:29:27;36.10;;;17.17;;
22205;SDS011;11272;50.104;8.754;2022-10-13T09:31:53;34.50;;;16.73;;
22205;SDS011;11272;50.104;8.754;2022-10-13T09:34:32;31.00;;;16.00;;
22205;SDS011;11272;50.104;8.754;2022-10-13T09:37:10;32.47;;;17.50;;
22205;SDS011;11272;50.104;8.754;2022-10-13T09:39:42;34.27;;;17.10;;
22205;SDS011;11272;50.104;8.754;2022-10-13T09:42:18;38.97;;;17.83;;
22205;SDS011;11272;50.104;8.754;2022-10-13T09:45:00;40.17;;;16.63;;
22205;SDS011;11272;50.104;8.754;2022-10-13T09:47:36;33.00;;;16.00;;
22205;SDS011;11272;50.104;8.754;2022-10-13T09:50:16;26.57;;;15.83;;
22205;SDS011;11272;50.104;8.754;2022-10-13T09:52:46;32.50;;;15.87;;
22205;SDS011;11272;50.104;8.754;2022-10-13T09:55:30;33.17;;;16.20;;
22205;SDS011;11272;50.104;8.754;2022-10-13T09:58:11;35.60;;;16.57;;
22205;SDS011;11272;50.104;8.754;2022-10-13T10:00:43;45.63;;;17.57;;
22205;SDS011;11272;50.104;8.754;2022-10-13T10:03:21;39.40;;;17.20;;
22205;SDS011;11272;50.104;8.754;2022-10-13T10:05:55;34.33;;;16.60;;
22205;SDS011;11272;50.104;8.754;2022-10-13T10:11:26;35.47;;;17.47;;
22205;SDS011;11272;50.104;8.754;2022-10-13T10:13:55;40.20;;;17.33;;
22205;SDS011;11272;50.104;8.754;2022-10-13T10:21:50;35.37;;;17.77;;
22205;SDS011;11272;50.104;8.754;2022-10-13T10:27:21;37.77;;;17.57;;
22205;SDS011;11272;50.104;8.754;2022-10-13T10:29:50;34.13;;;17.57;;
22205;SDS011;11272;50.104;8.754;2022-10-13T10:38:21;36.93;;;16.80;;
22205;SDS011;11272;50.104;8.754;2022-10-13T10:41:28;33.50;;;16.93;;
22205;SDS011;11272;50.104;8.754;2022-10-13T10:49:35;32.83;;;16.87;;
22205;SDS011;11272;50.104;8.754;2022-10-13T10:52:07;33.73;;;16.90;;
22205;SDS011;11272;50.104;8.754;2022-10-13T11:51:25;19.90;;;11.27;;
22205;SDS011;11272;50.104;8.754;2022-10-13T11:59:50;16.20;;;9.85;;
22205;SDS011;11272;50.104;8.754;2022-10-13T12:10:31;17.10;;;9.73;;
22205;SDS011;11272;50.104;8.754;2022-10-13T12:31:53;15.80;;;7.77;;
22205;SDS011;11272;50.104;8.754;2022-10-13T12:34:26;13.97;;;7.30;;
22205;SDS011;11272;50.104;8.754;2022-10-13T12:36:55;11.87;;;7.90;;
22205;SDS011;11272;50.104;8.754;2022-10-13T12:39:24;14.03;;;7.47;;
22205;SDS011;11272;50.104;8.754;2022-10-13T12:44:32;17.90;;;7.93;;
22205;SDS011;11272;50.104;8.754;2022-10-13T12:46:59;14.27;;;8.13;;
22205;SDS011;11272;50.104;8.754;2022-10-13T12:52:09;16.00;;;8.73;;
22205;SDS011;11272;50.104;8.754;2022-10-13T12:54:55;15.57;;;8.53;;
22205;SDS011;11272;50.104;8.754;2022-10-13T12:57:32;13.53;;;8.03;;
22205;SDS011;11272;50.104;8.754;2022-10-13T13:02:59;14.13;;;7.83;;
22205;SDS011;11272;50.104;8.754;2022-10-13T13:05:41;15.73;;;8.17;;
22205;SDS011;11272;50.104;8.754;2022-10-13T13:11:01;15.60;;;7.87;;
22205;SDS011;11272;50.104;8.754;2022-10-13T13:13:29;16.77;;;7.83;;
22205;SDS011;11272;50.104;8.754;2022-10-13T13:16:14;14.80;;;7.60;;
22205;SDS011;11272;50.104;8.754;2022-10-13T13:18:42;18.37;;;7.87;;
22205;SDS011;11272;50.104;8.754;2022-10-13T13:21:17;16.80;;;7.30;;
22205;SDS011;11272;50.104;8.754;2022-10-13T13:23:44;12.83;;;7.50;;
22205;SDS011;11272;50.104;8.754;2022-10-13T13:28:45;16.40;;;8.00;;
22205;SDS011;11272;50.104;8.754;2022-10-13T13:31:13;14.60;;;7.70;;
22205;SDS011;11272;50.104;8.754;2022-10-13T13:33:40;13.57;;;8.23;;
22205;SDS011;11272;50.104;8.754;2022-10-13T13:36:22;17.07;;;8.97;;
22205;SDS011;11272;50.104;8.754;2022-10-13T13:41:30;17.33;;;8.30;;
22205;SDS011;11272;50.104;8.754;2022-10-13T13:43:56;17.57;;;8.83;;
22205;SDS011;11272;50.104;8.754;2022-10-13T13:46:24;13.03;;;8.67;;
22205;SDS011;11272;50.104;8.754;2022-10-13T13:48:56;19.67;;;9.13;;
22205;SDS011;11272;50.104;8.754;2022-10-13T13:51:22;17.20;;;9.03;;
22205;SDS011;11272;50.104;8.754;2022-10-13T13:53:48;18.37;;;9.10;;
22205;SDS011;11272;50.104;8.754;2022-10-13T13:56:14;20.80;;;9.53;;
22205;SDS011;11272;50.104;8.754;2022-10-13T13:58:41;15.67;;;9.23;;
22205;SDS011;11272;50.104;8.754;2022-10-13T14:01:07;15.47;;;9.03;;
22205;SDS011;11272;50.104;8.754;2022-10-13T14:03:33;17.67;;;9.73;;
22205;SDS011;11272;50.104;8.754;2022-10-13T14:05:59;16.73;;;10.40;;
22205;SDS011;11272;50.104;8.754;2022-10-13T14:11:07;16.90;;;9.93;;
22205;SDS011;11272;50.104;8.754;2022-10-13T14:13:33;15.70;;;9.43;;
22205;SDS011;11272;50.104;8.754;2022-10-13T14:15:59;21.57;;;10.03;;
22205;SDS011;11272;50.104;8.754;2022-10-13T14:18:25;15.27;;;9.77;;
22205;SDS011;11272;50.104;8.754;2022-10-13T14:20:51;18.23;;;10.30;;
22205;SDS011;11272;50.104;8.754;2022-10-13T14:23:17;17.00;;;9.90;;
22205;SDS011;11272;50.104;8.754;2022-10-13T14:25:43;19.60;;;10.00;;
22205;SDS011;11272;50.104;8.754;2022-10-13T14:28:08;20.43;;;10.07;;
22205;SDS011;11272;50.104;8.754;2022-10-13T14:30:34;16.80;;;9.87;;
22205;SDS011;11272;50.104;8.754;2022-10-13T14:32:59;23.67;;;10.83;;
22205;SDS011;11272;50.104;8.754;2022-10-13T14:35:27;17.80;;;9.90;;
22205;SDS011;11272;50.104;8.754;2022-10-13T14:37:52;16.50;;;9.90;;
22205;SDS011;11272;50.104;8.754;2022-10-13T14:40:17;16.50;;;10.00;;
22205;SDS011;11272;50.104;8.754;2022-10-13T14:42:43;19.57;;;10.73;;
22205;SDS011;11272;50.104;8.754;2022-10-13T14:50:36;18.67;;;9.80;;
22205;SDS011;11272;50.104;8.754;2022-10-13T14:53:02;16.57;;;10.20;;
22205;SDS011;11272;50.104;8.754;2022-10-13T14:55:31;16.53;;;10.50;;
22205;SDS011;11272;50.104;8.754;2022-10-13T14:57:56;18.13;;;10.07;;
22205;SDS011;11272;50.104;8.754;2022-10-13T15:00:21;15.93;;;9.80;;
22205;SDS011;11272;50.104;8.754;2022-10-13T15:02:47;15.00;;;10.07;;
22205;SDS011;11272;50.104;8.754;2022-10-13T15:05:12;13.90;;;9.90;;
22205;SDS011;11272;50.104;8.754;2022-10-13T15:07:38;18.63;;;9.73;;
22205;SDS011;11272;50.104;8.754;2022-10-13T15:10:03;17.30;;;10.40;;
22205;SDS011;11272;50.104;8.754;2022-10-13T15:12:29;15.70;;;10.23;;
22205;SDS011;11272;50.104;8.754;2022-10-13T15:14:55;20.57;;;10.30;;
22205;SDS011;11272;50.104;8.754;2022-10-13T15:17:21;22.00;;;10.70;;
22205;SDS011;11272;50.104;8.754;2022-10-13T15:19:46;19.50;;;10.83;;
22205;SDS011;11272;50.104;8.754;2022-10-13T15:22:11;21.77;;;11.50;;
22205;SDS011;11272;50.104;8.754;2022-10-13T15:24:37;19.60;;;10.63;;
22205;SDS011;11272;50.104;8.754;2022-10-13T15:27:02;20.30;;;10.33;;
22205;SDS011;11272;50.104;8.754;2022-10-13T15:29:30;19.63;;;11.30;;
22205;SDS011;11272;50.104;8.754;2022-10-13T15:32:05;21.47;;;10.93;;
22205;SDS011;11272;50.104;8.754;2022-10-13T15:34:43;18.87;;;10.87;;
22205;SDS011;11272;50.104;8.754;2022-10-13T15:37:09;20.47;;;11.17;;
22205;SDS011;11272;50.104;8.754;2022-10-13T15:39:36;20.93;;;11.43;;
22205;SDS011;11272;50.104;8.754;2022-10-13T15:42:02;20.47;;;11.30;;
22205;SDS011;11272;50.104;8.754;2022-10-13T15:44:28;19.57;;;11.40;;
22205;SDS011;11272;50.104;8.754;2022-10-13T15:46:55;19.63;;;11.20;;
22205;SDS011;11272;50.104;8.754;2022-10-13T15:49:22;20.13;;;11.30;;
22205;SDS011;11272;50.104;8.754;2022-10-13T15:51:48;20.23;;;11.60;;
22205;SDS011;11272;50.104;8.754;2022-10-13T15:54:15;21.20;;;12.23;;
22205;SDS011;11272;50.104;8.754;2022-10-13T15:56:44;21.77;;;11.70;;
22205;SDS011;11272;50.104;8.754;2022-10-13T15:59:10;25.37;;;11.67;;
22205;SDS011;11272;50.104;8.754;2022-10-13T16:01:37;21.73;;;11.80;;
22205;SDS011;11272;50.104;8.754;2022-10-13T16:12:08;28.10;;;13.93;;
22205;SDS011;11272;50.104;8.754;2022-10-13T16:14:33;27.67;;;14.70;;
22205;SDS011;11272;50.104;8.754;2022-10-13T16:16:59;23.60;;;14.13;;
22205;SDS011;11272;50.104;8.754;2022-10-13T16:19:24;27.77;;;14.93;;
22205;SDS011;11272;50.104;8.754;2022-10-13T16:21:50;23.20;;;15.13;;
22205;SDS011;11272;50.104;8.754;2022-10-13T16:24:15;25.50;;;14.23;;
22205;SDS011;11272;50.104;8.754;2022-10-13T16:26:40;27.23;;;15.60;;
22205;SDS011;11272;50.104;8.754;2022-10-13T16:29:06;29.00;;;15.67;;
22205;SDS011;11272;50.104;8.754;2022-10-13T16:31:31;31.67;;;16.47;;
22205;SDS011;11272;50.104;8.754;2022-10-13T16:33:57;27.23;;;16.23;;
22205;SDS011;11272;50.104;8.754;2022-10-13T16:36:22;27.97;;;15.53;;
22205;SDS011;11272;50.104;8.754;2022-10-13T16:38:50;26.43;;;16.33;;
22205;SDS011;11272;50.104;8.754;2022-10-13T16:41:16;29.70;;;16.73;;
22205;SDS011;11272;50.104;8.754;2022-10-13T16:43:43;31.80;;;16.77;;
22205;SDS011;11272;50.104;8.754;2022-10-13T16:46:10;36.00;;;18.37;;
22205;SDS011;11272;50.104;8.754;2022-10-13T16:51:20;31.67;;;17.27;;
22205;SDS011;11272;50.104;8.754;2022-10-13T16:56:29;38.97;;;18.40;;
22205;SDS011;11272;50.104;8.754;2022-10-13T16:58:59;33.63;;;19.40;;
22205;SDS011;11272;50.104;8.754;2022-10-13T17:01:29;42.60;;;20.30;;
22205;SDS011;11272;50.104;8.754;2022-10-13T17:03:59;42.20;;;20.40;;
22205;SDS011;11272;50.104;8.754;2022-10-13T17:06:26;44.00;;;21.63;;
22205;SDS011;11272;50.104;8.754;2022-10-13T17:08:56;42.00;;;22.07;;
22205;SDS011;11272;50.104;8.754;2022-10-13T17:11:24;41.07;;;21.40;;
22205;SDS011;11272;50.104;8.754;2022-10-13T17:13:55;48.47;;;21.83;;
22205;SDS011;11272;50.104;8.754;2022-10-13T17:16:28;45.63;;;22.03;;
22205;SDS011;11272;50.104;8.754;2022-10-13T17:18:54;42.53;;;21.47;;
22205;SDS011;11272;50.104;8.754;2022-10-13T17:21:21;46.23;;;22.03;;
22205;SDS011;11272;50.104;8.754;2022-10-13T17:23:47;53.47;;;23.33;;
22205;SDS011;11272;50.104;8.754;2022-10-13T17:26:13;48.80;;;23.17;;
22205;SDS011;11272;50.104;8.754;2022-10-13T17:28:43;47.43;;;23.40;;
22205;SDS011;11272;50.104;8.754;2022-10-13T17:31:15;47.90;;;23.10;;
22205;SDS011;11272;50.104;8.754;2022-10-13T17:33:46;50.00;;;24.37;;
22205;SDS011;11272;50.104;8.754;2022-10-13T17:36:16;57.57;;;25.00;;
22205;SDS011;11272;50.104;8.754;2022-10-13T17:38:44;55.97;;;24.50;;
22205;SDS011;11272;50.104;8.754;2022-10-13T17:41:10;48.17;;;23.50;;